Time;durP1;ratioP1;P1;durP2;ratioP2;P2;SDS_P1;SDS_P2;PMS_P1;PMS_P2;Temp;Humidity;BMP_temperature;BMP_pressure;BME280_temperature;BME280_humidity;BME280_pressure;Samples;Min_cycle;Max_cycle;Signal;HPM_P1;HPM_P2
2023/09/27 00:00:37;;;;;;;4.25;3.80;;;;;;;;;;5052081;28;20209;-75
2023/09/27 00:03:05;;;;;;;5.10;3.53;;;;;;;;;;5051907;28;20288;-75
2023/09/27 00:05:31;;;;;;;5.03;3.85;;;;;;;;;;5052216;28;20314;-75
2023/09/27 00:07:59;;;;;;;4.88;3.88;;;;;;;;;;5051830;28;20221;-75
2023/09/27 00:10:27;;;;;;;3.22;3.05;;;;;;;;;;5052226;28;20219;-75
2023/09/27 00:12:53;;;;;;;3.45;3.25;;;;;;;;;;5051981;28;20201;-75
2023/09/27 00:15:19;;;;;;;3.47;3.25;;;;;;;;;;5051715;28;20224;-75
2023/09/27 00:17:46;;;;;;;4.10;3.78;;;;;;;;;;5051864;28;20220;-75
2023/09/27 00:20:15;;;;;;;3.47;3.28;;;;;;;;;;5051730;28;20669;-75
2023/09/27 00:22:42;;;;;;;4.78;3.70;;;;;;;;;;5052106;28;20215;-75
2023/09/27 00:25:11;;;;;;;3.70;3.50;;;;;;;;;;5051607;28;20622;-75
2023/09/27 00:27:38;;;;;;;4.18;3.90;;;;;;;;;;5051605;28;20208;-75
2023/09/27 00:30:06;;;;;;;4.65;4.28;;;;;;;;;;5051627;28;20212;-75
2023/09/27 00:32:33;;;;;;;4.18;3.90;;;;;;;;;;5051764;28;20211;-75
2023/09/27 00:35:00;;;;;;;3.33;3.22;;;;;;;;;;5051557;28;20312;-75
2023/09/27 00:37:27;;;;;;;3.85;3.55;;;;;;;;;;5051234;28;20209;-75
2023/09/27 00:39:54;;;;;;;4.70;4.10;;;;;;;;;;5051672;28;20205;-75
2023/09/27 00:42:23;;;;;;;3.92;3.63;;;;;;;;;;5035534;28;20213;-75
2023/09/27 00:44:49;;;;;;;4.10;3.80;;;;;;;;;;5051496;28;20236;-75
2023/09/27 00:47:15;;;;;;;3.95;3.55;;;;;;;;;;5051606;28;20201;-75
2023/09/27 00:49:42;;;;;;;3.88;3.55;;;;;;;;;;5051682;28;20212;-75
2023/09/27 00:52:09;;;;;;;6.05;3.28;;;;;;;;;;5052709;28;20203;-75
2023/09/27 00:54:35;;;;;;;4.18;3.80;;;;;;;;;;5051205;28;20202;-75
2023/09/27 00:57:02;;;;;;;3.70;3.20;;;;;;;;;;5051078;28;20236;-75
2023/09/27 00:59:30;;;;;;;3.30;3.10;;;;;;;;;;5051325;28;20216;-75
2023/09/27 01:01:56;;;;;;;2.85;2.75;;;;;;;;;;5051451;28;20256;-75
2023/09/27 01:04:23;;;;;;;3.38;3.20;;;;;;;;;;5035228;28;20651;-75
2023/09/27 01:06:50;;;;;;;2.95;2.85;;;;;;;;;;5051217;28;20603;-75
2023/09/27 01:09:17;;;;;;;3.35;3.10;;;;;;;;;;5050857;28;20201;-74
2023/09/27 01:11:46;;;;;;;3.47;3.28;;;;;;;;;;5051237;28;20194;-74
2023/09/27 01:14:13;;;;;;;3.50;3.30;;;;;;;;;;5050964;28;20201;-74
2023/09/27 01:16:41;;;;;;;4.45;4.07;;;;;;;;;;5051138;28;20244;-74
2023/09/27 01:19:08;;;;;;;4.65;3.63;;;;;;;;;;5050951;28;20252;-75
2023/09/27 01:21:34;;;;;;;5.03;3.38;;;;;;;;;;5051138;28;20213;-74
2023/09/27 01:24:02;;;;;;;3.75;3.45;;;;;;;;;;5050899;28;20224;-74
2023/09/27 01:26:29;;;;;;;5.35;3.70;;;;;;;;;;5050919;28;20235;-74
2023/09/27 01:28:55;;;;;;;4.80;4.45;;;;;;;;;;5050921;28;20586;-74
2023/09/27 01:31:22;;;;;;;4.40;4.03;;;;;;;;;;5051031;28;20198;-74
2023/09/27 01:33:49;;;;;;;6.43;4.90;;;;;;;;;;5051190;28;20209;-74
2023/09/27 01:36:15;;;;;;;5.30;4.88;;;;;;;;;;5050659;28;20221;-74
2023/09/27 01:38:42;;;;;;;6.93;4.90;;;;;;;;;;5050674;28;20193;-74
2023/09/27 01:41:09;;;;;;;6.00;5.30;;;;;;;;;;5050879;28;20236;-74
2023/09/27 01:43:35;;;;;;;5.35;4.40;;;;;;;;;;5051110;28;20204;-74
2023/09/27 01:46:02;;;;;;;6.15;4.53;;;;;;;;;;5050591;28;20575;-74
2023/09/27 01:48:28;;;;;;;4.72;4.32;;;;;;;;;;5050616;28;20236;-74
2023/09/27 01:50:55;;;;;;;4.93;4.50;;;;;;;;;;5050796;28;20205;-74
2023/09/27 01:53:21;;;;;;;5.15;4.65;;;;;;;;;;5050765;28;20208;-74
2023/09/27 01:55:48;;;;;;;4.75;4.35;;;;;;;;;;5050730;28;20233;-74
2023/09/27 01:58:15;;;;;;;4.55;4.22;;;;;;;;;;5050707;28;20516;-74
2023/09/27 02:00:41;;;;;;;5.22;4.30;;;;;;;;;;5050722;28;20197;-74
2023/09/27 02:03:08;;;;;;;5.53;5.00;;;;;;;;;;5050492;28;20674;-75
2023/09/27 02:05:34;;;;;;;4.82;4.00;;;;;;;;;;5050909;28;20220;-75
2023/09/27 02:08:00;;;;;;;4.65;4.32;;;;;;;;;;5054031;28;20201;-75
2023/09/27 02:10:27;;;;;;;5.57;4.07;;;;;;;;;;5054295;28;20201;-76
2023/09/27 02:12:53;;;;;;;4.70;4.10;;;;;;;;;;5054219;28;20595;-75
2023/09/27 02:15:20;;;;;;;4.20;3.90;;;;;;;;;;5054038;28;20217;-75
2023/09/27 02:17:47;;;;;;;6.60;4.85;;;;;;;;;;5053751;28;20209;-75
2023/09/27 02:20:17;;;;;;;5.88;4.57;;;;;;;;;;5053919;28;20201;-74
2023/09/27 02:22:44;;;;;;;6.18;5.00;;;;;;;;;;5053978;28;20209;-74
2023/09/27 02:25:12;;;;;;;5.47;5.07;;;;;;;;;;5053820;28;20229;-74
2023/09/27 02:27:39;;;;;;;6.05;5.45;;;;;;;;;;5053715;28;20236;-74
2023/09/27 02:30:07;;;;;;;6.32;5.30;;;;;;;;;;5053903;28;20209;-74
2023/09/27 02:32:36;;;;;;;7.30;5.10;;;;;;;;;;5053882;28;20189;-74
2023/09/27 02:35:04;;;;;;;6.90;5.03;;;;;;;;;;5053605;28;20271;-74
2023/09/27 02:37:31;;;;;;;7.85;5.18;;;;;;;;;;5053723;28;20288;-76
2023/09/27 02:39:58;;;;;;;7.95;4.65;;;;;;;;;;5053821;28;20334;-76
2023/09/27 02:42:24;;;;;;;5.45;4.82;;;;;;;;;;5053626;28;20213;-75
2023/09/27 02:44:51;;;;;;;6.28;4.80;;;;;;;;;;5053596;28;20200;-76
2023/09/27 02:47:17;;;;;;;5.15;4.57;;;;;;;;;;5053388;28;20205;-75
2023/09/27 02:49:45;;;;;;;6.40;4.90;;;;;;;;;;5053265;28;20748;-75
2023/09/27 02:52:33;;;;;;;5.28;4.82;;;;;;;;;;5053172;28;20198;-75
2023/09/27 02:54:59;;;;;;;5.38;4.95;;;;;;;;;;5052704;28;20221;-76
2023/09/27 02:57:26;;;;;;;6.65;5.30;;;;;;;;;;5051230;28;20589;-75
2023/09/27 02:59:52;;;;;;;5.63;5.00;;;;;;;;;;5051698;28;20208;-75
2023/09/27 03:02:20;;;;;;;5.78;5.38;;;;;;;;;;5051475;28;20216;-75
2023/09/27 03:04:48;;;;;;;5.53;4.90;;;;;;;;;;5052663;28;20951;-75
2023/09/27 03:07:15;;;;;;;5.35;4.95;;;;;;;;;;5051392;28;20197;-75
2023/09/27 03:09:41;;;;;;;5.32;4.93;;;;;;;;;;5051660;28;20193;-75
2023/09/27 03:12:08;;;;;;;6.07;5.13;;;;;;;;;;5053114;28;20193;-75
2023/09/27 03:14:35;;;;;;;6.78;5.00;;;;;;;;;;5036938;28;20208;-75
2023/09/27 03:17:01;;;;;;;6.93;4.70;;;;;;;;;;5052558;28;20701;-75
2023/09/27 03:19:28;;;;;;;5.97;5.03;;;;;;;;;;5052372;28;20204;-75
2023/09/27 03:21:56;;;;;;;6.80;4.95;;;;;;;;;;5053194;28;20241;-75
2023/09/27 03:24:25;;;;;;;6.13;5.22;;;;;;;;;;5052707;28;20215;-75
2023/09/27 03:26:52;;;;;;;5.78;5.22;;;;;;;;;;5052709;28;20220;-75
2023/09/27 03:29:18;;;;;;;5.38;4.85;;;;;;;;;;5052330;28;20201;-75
2023/09/27 03:31:44;;;;;;;5.95;4.65;;;;;;;;;;5052598;28;20196;-75
2023/09/27 03:34:10;;;;;;;6.75;5.35;;;;;;;;;;5052896;28;20204;-75
2023/09/27 03:36:37;;;;;;;5.00;4.45;;;;;;;;;;5052431;28;20217;-75
2023/09/27 03:39:05;;;;;;;7.57;4.60;;;;;;;;;;5052417;28;20205;-75
2023/09/27 03:41:32;;;;;;;8.35;5.03;;;;;;;;;;5052515;28;20240;-75
2023/09/27 03:43:58;;;;;;;9.05;5.18;;;;;;;;;;5052546;28;20209;-75
2023/09/27 03:46:24;;;;;;;4.85;4.55;;;;;;;;;;5052568;28;20225;-75
2023/09/27 03:48:50;;;;;;;5.88;4.97;;;;;;;;;;5052449;28;20201;-75
2023/09/27 03:51:23;;;;;;;9.88;5.00;;;;;;;;;;5052489;28;20197;-75
2023/09/27 03:53:49;;;;;;;7.30;5.80;;;;;;;;;;5052345;28;20216;-74
2023/09/27 03:56:17;;;;;;;11.10;5.07;;;;;;;;;;5052052;28;20229;-74
2023/09/27 03:58:43;;;;;;;5.03;4.60;;;;;;;;;;5052373;28;20197;-74
2023/09/27 04:01:09;;;;;;;6.68;5.30;;;;;;;;;;5052178;28;20284;-74
2023/09/27 04:03:36;;;;;;;5.60;4.97;;;;;;;;;;5052128;28;20208;-74
2023/09/27 04:06:02;;;;;;;5.97;5.40;;;;;;;;;;5052110;28;20221;-74
2023/09/27 04:08:29;;;;;;;5.70;5.20;;;;;;;;;;5051756;28;20201;-74
2023/09/27 04:10:55;;;;;;;5.80;5.25;;;;;;;;;;5052004;28;20205;-74
2023/09/27 04:13:22;;;;;;;6.00;5.40;;;;;;;;;;5051999;28;20212;-74
2023/09/27 04:15:49;;;;;;;5.25;4.75;;;;;;;;;;5051871;28;20227;-74
2023/09/27 04:18:15;;;;;;;5.57;4.90;;;;;;;;;;5051675;28;20209;-74
2023/09/27 04:20:42;;;;;;;5.07;4.57;;;;;;;;;;5035812;28;20193;-74
2023/09/27 04:23:08;;;;;;;5.20;4.55;;;;;;;;;;5051587;28;20221;-75
2023/09/27 04:25:34;;;;;;;5.50;4.63;;;;;;;;;;5051444;28;20232;-75
2023/09/27 04:28:00;;;;;;;5.35;4.72;;;;;;;;;;5051223;28;20201;-75
2023/09/27 04:30:28;;;;;;;5.60;5.00;;;;;;;;;;5051052;28;20693;-75
2023/09/27 04:32:54;;;;;;;5.32;4.85;;;;;;;;;;5051687;28;20548;-75
2023/09/27 04:35:21;;;;;;;5.80;5.30;;;;;;;;;;5051359;28;20221;-75
2023/09/27 04:37:48;;;;;;;5.93;5.00;;;;;;;;;;5051434;28;20598;-75
2023/09/27 04:40:14;;;;;;;5.60;4.45;;;;;;;;;;5051514;28;20213;-75
2023/09/27 04:42:41;;;;;;;5.60;5.10;;;;;;;;;;5051288;28;20772;-74
2023/09/27 04:45:08;;;;;;;5.70;5.30;;;;;;;;;;5047253;28;20221;-74
2023/09/27 04:47:36;;;;;;;5.97;4.97;;;;;;;;;;5050931;28;20216;-75
2023/09/27 04:50:02;;;;;;;5.78;5.13;;;;;;;;;;5051216;28;20197;-75
2023/09/27 04:52:29;;;;;;;5.25;4.72;;;;;;;;;;5051051;28;20211;-75
2023/09/27 04:54:56;;;;;;;5.78;5.25;;;;;;;;;;5051275;28;20212;-69
2023/09/27 04:57:22;;;;;;;5.53;5.00;;;;;;;;;;5051007;28;20236;-68
2023/09/27 04:59:49;;;;;;;7.47;5.97;;;;;;;;;;5051305;28;20201;-68
2023/09/27 05:02:16;;;;;;;6.03;5.22;;;;;;;;;;5051058;28;20300;-68
2023/09/27 05:04:45;;;;;;;5.50;5.00;;;;;;;;;;5050890;28;20583;-68
2023/09/27 05:07:11;;;;;;;5.78;5.13;;;;;;;;;;5050934;28;20212;-68
2023/09/27 05:09:37;;;;;;;5.85;5.32;;;;;;;;;;5051060;28;20205;-68
2023/09/27 05:12:04;;;;;;;7.85;5.32;;;;;;;;;;5051550;28;20546;-68
2023/09/27 05:14:31;;;;;;;5.60;4.80;;;;;;;;;;5051182;28;20211;-68
2023/09/27 05:16:57;;;;;;;5.50;4.85;;;;;;;;;;5050966;28;20263;-68
2023/09/27 05:19:23;;;;;;;7.93;4.82;;;;;;;;;;5050634;28;20208;-69
2023/09/27 05:21:51;;;;;;;7.03;5.10;;;;;;;;;;5051261;28;20220;-69
2023/09/27 05:24:17;;;;;;;7.38;5.00;;;;;;;;;;5051101;28;20201;-69
2023/09/27 05:26:44;;;;;;;6.10;5.40;;;;;;;;;;5050821;28;20219;-69
2023/09/27 05:29:13;;;;;;;7.22;5.03;;;;;;;;;;5050608;28;20673;-68
2023/09/27 05:31:40;;;;;;;7.35;5.50;;;;;;;;;;5050786;28;20205;-68
2023/09/27 05:34:06;;;;;;;5.80;5.22;;;;;;;;;;5050707;28;20696;-68
2023/09/27 05:36:32;;;;;;;6.00;5.40;;;;;;;;;;5050718;28;20233;-68
2023/09/27 05:39:02;;;;;;;6.22;5.30;;;;;;;;;;5050632;28;20197;-69
2023/09/27 05:41:28;;;;;;;9.95;6.07;;;;;;;;;;5053996;28;20236;-69
2023/09/27 05:43:54;;;;;;;6.45;5.75;;;;;;;;;;5054563;28;20253;-69
2023/09/27 05:46:20;;;;;;;12.05;7.05;;;;;;;;;;5054293;28;20225;-69
2023/09/27 05:48:48;;;;;;;14.45;6.82;;;;;;;;;;5054074;28;20212;-69
2023/09/27 05:51:14;;;;;;;9.25;6.55;;;;;;;;;;5054684;28;20202;-69
2023/09/27 05:53:40;;;;;;;8.70;5.82;;;;;;;;;;5054402;28;20590;-69
2023/09/27 05:56:08;;;;;;;12.88;6.55;;;;;;;;;;5054040;28;20705;-68
2023/09/27 05:58:35;;;;;;;12.88;6.20;;;;;;;;;;5054070;28;20205;-68
2023/09/27 06:01:02;;;;;;;11.98;6.72;;;;;;;;;;5054258;28;20197;-68
2023/09/27 06:03:29;;;;;;;9.18;6.90;;;;;;;;;;5053944;28;20725;-68
2023/09/27 06:05:56;;;;;;;11.35;7.68;;;;;;;;;;5054348;28;20237;-68
2023/09/27 06:08:22;;;;;;;11.38;7.63;;;;;;;;;;5053986;28;20232;-68
2023/09/27 06:10:49;;;;;;;11.43;7.10;;;;;;;;;;5053917;28;20209;-68
2023/09/27 06:13:16;;;;;;;9.45;7.30;;;;;;;;;;5054019;28;20193;-68
2023/09/27 06:15:43;;;;;;;12.07;7.72;;;;;;;;;;5053825;28;20489;-68
2023/09/27 06:18:09;;;;;;;10.57;7.70;;;;;;;;;;5053647;28;20231;-68
2023/09/27 06:20:38;;;;;;;9.73;7.65;;;;;;;;;;5053652;28;20602;-68
2023/09/27 06:23:05;;;;;;;11.75;7.97;;;;;;;;;;5053847;28;20262;-69
2023/09/27 06:25:34;;;;;;;14.00;6.97;;;;;;;;;;5043775;28;20234;-68
2023/09/27 06:28:01;;;;;;;10.68;7.53;;;;;;;;;;5031887;28;20205;-70
2023/09/27 06:30:29;;;;;;;11.07;8.07;;;;;;;;;;5040873;28;20237;-73
2023/09/27 06:32:56;;;;;;;9.70;7.90;;;;;;;;;;5035083;28;20287;-73
2023/09/27 06:35:22;;;;;;;10.50;7.97;;;;;;;;;;5033473;28;20243;-71
2023/09/27 06:37:49;;;;;;;10.45;7.13;;;;;;;;;;5033801;28;20216;-72
2023/09/27 06:40:17;;;;;;;9.15;7.03;;;;;;;;;;5029061;28;20214;-69
2023/09/27 06:42:43;;;;;;;8.00;7.20;;;;;;;;;;5033887;28;20226;-69
2023/09/27 06:45:11;;;;;;;11.98;7.45;;;;;;;;;;5041578;28;20304;-69
2023/09/27 06:47:41;;;;;;;9.02;7.65;;;;;;;;;;5036884;28;20688;-69
2023/09/27 06:50:08;;;;;;;9.45;6.78;;;;;;;;;;5043855;28;20205;-69
2023/09/27 06:52:34;;;;;;;11.77;7.93;;;;;;;;;;5040181;28;20204;-69
2023/09/27 06:55:01;;;;;;;14.88;7.32;;;;;;;;;;5042781;28;20244;-69
2023/09/27 06:57:28;;;;;;;9.07;6.88;;;;;;;;;;5037796;28;20211;-69
2023/09/27 06:59:54;;;;;;;9.40;6.72;;;;;;;;;;5035846;28;20670;-70
2023/09/27 07:02:21;;;;;;;10.80;7.18;;;;;;;;;;5032274;28;20209;-70
2023/09/27 07:04:48;;;;;;;11.20;6.80;;;;;;;;;;5038300;28;20209;-71
2023/09/27 07:07:15;;;;;;;7.63;6.90;;;;;;;;;;5038026;28;20208;-69
2023/09/27 07:09:41;;;;;;;13.32;6.97;;;;;;;;;;5037435;28;20202;-71
2023/09/27 07:12:08;;;;;;;6.90;6.20;;;;;;;;;;5036845;28;20204;-73
2023/09/27 07:14:36;;;;;;;8.02;6.25;;;;;;;;;;5033566;28;20231;-73
2023/09/27 07:17:02;;;;;;;10.63;7.45;;;;;;;;;;5027971;28;20603;-69
2023/09/27 07:19:31;;;;;;;10.90;7.32;;;;;;;;;;5033273;28;20205;-70
2023/09/27 07:21:57;;;;;;;7.15;6.50;;;;;;;;;;5036873;28;20208;-69
2023/09/27 07:24:24;;;;;;;7.82;6.13;;;;;;;;;;5035540;28;20241;-69
2023/09/27 07:26:52;;;;;;;7.25;6.65;;;;;;;;;;5032037;28;20713;-71
2023/09/27 07:29:18;;;;;;;7.20;6.63;;;;;;;;;;5027528;28;20214;-69
2023/09/27 07:31:45;;;;;;;7.15;6.45;;;;;;;;;;5029599;28;20673;-69
2023/09/27 07:34:11;;;;;;;8.25;7.00;;;;;;;;;;5029698;28;20232;-71
2023/09/27 07:36:38;;;;;;;7.28;6.68;;;;;;;;;;5033441;28;20830;-72
2023/09/27 07:39:09;;;;;;;9.20;8.10;;;;;;;;;;5031358;28;20209;-69
2023/09/27 07:41:35;;;;;;;9.02;7.65;;;;;;;;;;5028911;28;20296;-70
2023/09/27 07:44:04;;;;;;;9.93;7.47;;;;;;;;;;5031209;28;20221;-70
2023/09/27 07:46:30;;;;;;;10.73;7.20;;;;;;;;;;5036617;28;20613;-71
2023/09/27 07:48:57;;;;;;;10.27;7.55;;;;;;;;;;5034821;28;20212;-69
2023/09/27 07:51:23;;;;;;;8.88;6.72;;;;;;;;;;5036088;28;20210;-71
2023/09/27 07:53:49;;;;;;;7.60;6.90;;;;;;;;;;5032077;28;20213;-70
2023/09/27 07:56:20;;;;;;;7.13;6.43;;;;;;;;;;5029612;28;20230;-71
2023/09/27 07:58:47;;;;;;;9.10;7.13;;;;;;;;;;5032220;28;20217;-70
2023/09/27 08:01:20;;;;;;;10.57;6.40;;;;;;;;;;5027236;28;20213;-69
2023/09/27 08:03:46;;;;;;;7.97;7.00;;;;;;;;;;5034144;28;20253;-71
2023/09/27 08:06:13;;;;;;;8.93;7.22;;;;;;;;;;5031120;28;20580;-70
2023/09/27 08:08:40;;;;;;;11.18;8.05;;;;;;;;;;5030038;28;20233;-71
2023/09/27 08:11:06;;;;;;;11.15;7.82;;;;;;;;;;5034659;28;20209;-72
2023/09/27 08:13:34;;;;;;;7.72;7.05;;;;;;;;;;5033469;28;20197;-70
2023/09/27 08:16:00;;;;;;;10.98;7.13;;;;;;;;;;5034451;28;20221;-70
2023/09/27 08:18:27;;;;;;;8.48;7.30;;;;;;;;;;5029147;28;20682;-71
2023/09/27 08:20:54;;;;;;;8.25;7.55;;;;;;;;;;5027205;28;20206;-72
2023/09/27 08:23:21;;;;;;;7.75;7.15;;;;;;;;;;5028130;28;20880;-71
2023/09/27 08:25:48;;;;;;;8.85;7.07;;;;;;;;;;5028156;28;20614;-74
2023/09/27 08:28:16;;;;;;;10.25;7.43;;;;;;;;;;5029063;28;20209;-69
2023/09/27 08:30:43;;;;;;;10.90;7.50;;;;;;;;;;5029063;28;20519;-70
2023/09/27 08:33:10;;;;;;;7.07;6.53;;;;;;;;;;5027514;28;20202;-72
2023/09/27 08:35:36;;;;;;;7.88;6.90;;;;;;;;;;5025457;28;20702;-70
2023/09/27 08:38:03;;;;;;;7.18;6.53;;;;;;;;;;5027416;28;20214;-70
2023/09/27 08:40:29;;;;;;;9.27;6.22;;;;;;;;;;5026205;28;20210;-71
2023/09/27 08:42:57;;;;;;;9.93;6.85;;;;;;;;;;5033020;28;20218;-70
2023/09/27 08:45:24;;;;;;;8.77;7.07;;;;;;;;;;5028677;28;20225;-70
2023/09/27 08:47:51;;;;;;;8.65;6.63;;;;;;;;;;5023086;28;20221;-73
2023/09/27 08:50:19;;;;;;;9.70;6.68;;;;;;;;;;5028338;28;20623;-69
2023/09/27 08:52:47;;;;;;;9.15;6.53;;;;;;;;;;5029254;28;20202;-71
2023/09/27 08:55:13;;;;;;;6.88;6.28;;;;;;;;;;5029132;28;20248;-72
2023/09/27 08:57:42;;;;;;;7.15;6.00;;;;;;;;;;5028897;28;20752;-71
2023/09/27 09:00:13;;;;;;;10.10;6.22;;;;;;;;;;5024624;28;20216;-68
2023/09/27 09:02:40;;;;;;;7.55;6.50;;;;;;;;;;5024593;28;20675;-69
2023/09/27 09:05:11;;;;;;;6.68;5.63;;;;;;;;;;5030245;28;20732;-71
2023/09/27 09:07:38;;;;;;;8.80;5.60;;;;;;;;;;5027368;28;20259;-71
2023/09/27 09:10:05;;;;;;;6.95;5.75;;;;;;;;;;5030978;28;20658;-67
2023/09/27 09:12:33;;;;;;;6.68;5.50;;;;;;;;;;5033498;28;20216;-70
2023/09/27 09:14:59;;;;;;;6.28;5.68;;;;;;;;;;5041193;28;20237;-69
2023/09/27 09:17:34;;;;;;;8.20;5.50;;;;;;;;;;5035123;28;20205;-69
2023/09/27 09:20:15;;;;;;;6.45;5.47;;;;;;;;;;5036666;28;20220;-71
2023/09/27 09:22:44;;;;;;;10.57;5.70;;;;;;;;;;5030011;28;20233;-71
2023/09/27 09:25:10;;;;;;;5.00;4.50;;;;;;;;;;5040433;28;20220;-70
2023/09/27 09:27:37;;;;;;;6.30;4.68;;;;;;;;;;5040584;28;20228;-70
2023/09/27 09:30:06;;;;;;;5.47;4.85;;;;;;;;;;5039486;28;20300;-69
2023/09/27 09:32:33;;;;;;;4.25;3.95;;;;;;;;;;5040561;28;20209;-71
2023/09/27 09:35:00;;;;;;;5.70;3.75;;;;;;;;;;5033015;28;20718;-71
2023/09/27 09:37:27;;;;;;;4.93;4.50;;;;;;;;;;5032849;28;20210;-71
2023/09/27 09:40:10;;;;;;;8.70;4.45;;;;;;;;;;5037347;28;20673;-71
2023/09/27 09:42:36;;;;;;;10.73;4.38;;;;;;;;;;5035698;28;20209;-72
2023/09/27 09:45:06;;;;;;;10.77;3.70;;;;;;;;;;5040623;28;20229;-72
2023/09/27 09:47:35;;;;;;;4.30;3.78;;;;;;;;;;5041959;28;20219;-72
2023/09/27 09:50:01;;;;;;;8.48;3.78;;;;;;;;;;5045043;28;20290;-72
2023/09/27 09:52:28;;;;;;;8.15;3.63;;;;;;;;;;5035974;28;20230;-72
2023/09/27 09:54:57;;;;;;;6.88;4.22;;;;;;;;;;5043967;28;20318;-72
2023/09/27 09:57:25;;;;;;;3.97;2.92;;;;;;;;;;5042261;28;20212;-72
2023/09/27 09:59:58;;;;;;;6.03;3.65;;;;;;;;;;5040226;28;20214;-72
2023/09/27 10:02:28;;;;;;;5.35;2.90;;;;;;;;;;5033464;28;20259;-72
2023/09/27 10:04:56;;;;;;;3.65;3.10;;;;;;;;;;5038674;28;20228;-70
2023/09/27 10:07:22;;;;;;;3.60;2.72;;;;;;;;;;5029309;28;20746;-71
2023/09/27 10:09:49;;;;;;;3.78;3.00;;;;;;;;;;5031120;28;20221;-66
2023/09/27 10:12:18;;;;;;;4.40;3.13;;;;;;;;;;5030209;28;20212;-70
2023/09/27 10:14:45;;;;;;;3.40;2.80;;;;;;;;;;5043061;28;20205;-68
2023/09/27 10:17:19;;;;;;;6.30;3.05;;;;;;;;;;5028638;28;20244;-69
2023/09/27 10:20:04;;;;;;;3.65;2.75;;;;;;;;;;5025582;28;20698;-69
2023/09/27 10:22:30;;;;;;;5.13;2.72;;;;;;;;;;5027458;28;20217;-70
2023/09/27 10:24:56;;;;;;;2.85;2.58;;;;;;;;;;5028605;28;20601;-69
2023/09/27 10:27:24;;;;;;;4.97;2.50;;;;;;;;;;5028580;28;20209;-67
2023/09/27 10:29:57;;;;;;;5.22;2.80;;;;;;;;;;5029402;28;20210;-67
2023/09/27 10:32:24;;;;;;;5.57;2.53;;;;;;;;;;5029412;28;20201;-69
2023/09/27 10:34:51;;;;;;;4.40;3.05;;;;;;;;;;5030170;28;20310;-69
2023/09/27 10:37:38;;;;;;;3.92;2.50;;;;;;;;;;5026117;28;20210;-71
2023/09/27 10:40:17;;;;;;;4.05;2.33;;;;;;;;;;5029170;28;20606;-70
2023/09/27 10:42:45;;;;;;;4.20;2.35;;;;;;;;;;5030008;28;20247;-72
2023/09/27 10:45:12;;;;;;;3.20;2.30;;;;;;;;;;5029802;28;20229;-70
2023/09/27 10:47:39;;;;;;;2.80;2.60;;;;;;;;;;5029209;28;20292;-69
2023/09/27 10:50:05;;;;;;;4.03;2.60;;;;;;;;;;5029637;28;20693;-69
2023/09/27 10:52:32;;;;;;;5.65;2.50;;;;;;;;;;5029575;28;20212;-69
2023/09/27 10:55:08;;;;;;;3.33;2.45;;;;;;;;;;5029481;28;20292;-69
2023/09/27 10:57:35;;;;;;;2.22;2.03;;;;;;;;;;5029048;28;20213;-69
2023/09/27 11:00:04;;;;;;;3.78;2.33;;;;;;;;;;5029323;28;20220;-69
2023/09/27 11:02:31;;;;;;;4.70;2.40;;;;;;;;;;5028939;28;20658;-70
2023/09/27 11:04:57;;;;;;;2.30;2.20;;;;;;;;;;5029108;28;20225;-69
2023/09/27 11:07:23;;;;;;;2.60;2.13;;;;;;;;;;5028628;28;20237;-69
2023/09/27 11:09:52;;;;;;;3.45;2.10;;;;;;;;;;5028561;28;20709;-69
2023/09/27 11:12:21;;;;;;;3.28;2.22;;;;;;;;;;5028963;28;20213;-69
2023/09/27 11:14:47;;;;;;;2.22;2.03;;;;;;;;;;5029689;28;20210;-68
2023/09/27 11:17:16;;;;;;;2.47;2.00;;;;;;;;;;5029134;28;20555;-70
2023/09/27 11:19:42;;;;;;;2.55;2.13;;;;;;;;;;5028773;28;20212;-69
2023/09/27 11:22:08;;;;;;;3.47;2.08;;;;;;;;;;5028696;28;20209;-68
2023/09/27 11:24:39;;;;;;;3.45;2.50;;;;;;;;;;5028615;28;20760;-71
2023/09/27 11:27:06;;;;;;;2.30;2.10;;;;;;;;;;5028910;28;20741;-70
2023/09/27 11:29:32;;;;;;;5.85;1.63;;;;;;;;;;5029196;28;20201;-68
2023/09/27 11:31:58;;;;;;;1.60;1.50;;;;;;;;;;5028491;28;20213;-69
2023/09/27 11:34:26;;;;;;;4.63;2.00;;;;;;;;;;5028726;28;20232;-71
2023/09/27 11:36:53;;;;;;;2.10;1.90;;;;;;;;;;5028317;28;20237;-70
2023/09/27 11:39:20;;;;;;;3.13;2.10;;;;;;;;;;5027787;28;20201;-71
2023/09/27 11:41:48;;;;;;;2.53;1.98;;;;;;;;;;5028015;28;20209;-73
2023/09/27 11:44:17;;;;;;;1.63;1.52;;;;;;;;;;5028535;28;20727;-70
2023/09/27 11:46:43;;;;;;;3.33;1.55;;;;;;;;;;5028162;28;20248;-69
2023/09/27 11:49:10;;;;;;;4.88;1.77;;;;;;;;;;5028173;28;20209;-69
2023/09/27 11:51:38;;;;;;;3.28;1.40;;;;;;;;;;5029133;28;20205;-69
2023/09/27 11:54:05;;;;;;;1.70;1.17;;;;;;;;;;5028302;28;20217;-66
2023/09/27 11:56:31;;;;;;;1.83;1.60;;;;;;;;;;5030911;28;20225;-69
2023/09/27 11:58:57;;;;;;;1.45;1.33;;;;;;;;;;5032992;28;20201;-63
2023/09/27 12:01:24;;;;;;;1.55;1.45;;;;;;;;;;5060006;28;20707;-64
2023/09/27 12:04:21;;;;;;;2.28;1.60;;;;;;;;;;5055980;28;20690;-63
2023/09/27 12:06:49;;;;;;;2.35;1.23;;;;;;;;;;5016387;28;20240;-62
2023/09/27 12:09:16;;;;;;;1.92;1.20;;;;;;;;;;5028263;28;20219;-63
2023/09/27 12:11:42;;;;;;;3.88;1.52;;;;;;;;;;5029009;28;20236;-63
2023/09/27 12:14:09;;;;;;;2.28;1.30;;;;;;;;;;5028607;28;20984;-63
2023/09/27 12:16:35;;;;;;;1.70;1.30;;;;;;;;;;5028570;28;20225;-62
2023/09/27 12:19:01;;;;;;;2.78;1.05;;;;;;;;;;5039349;28;20665;-62
2023/09/27 12:21:31;;;;;;;2.35;1.30;;;;;;;;;;5034802;28;20204;-63
2023/09/27 12:23:59;;;;;;;2.47;1.15;;;;;;;;;;5051054;28;20205;-63
2023/09/27 12:26:25;;;;;;;2.70;1.30;;;;;;;;;;5050896;28;20227;-63
2023/09/27 12:28:52;;;;;;;2.00;1.30;;;;;;;;;;5051269;28;20692;-63
2023/09/27 12:31:18;;;;;;;1.38;1.38;;;;;;;;;;5051407;28;20657;-63
2023/09/27 12:33:44;;;;;;;3.50;1.27;;;;;;;;;;5051403;28;20220;-62
2023/09/27 12:36:10;;;;;;;2.78;1.60;;;;;;;;;;5051326;28;20220;-63
2023/09/27 12:38:37;;;;;;;1.50;1.40;;;;;;;;;;5051295;28;20208;-62
2023/09/27 12:41:07;;;;;;;4.20;1.38;;;;;;;;;;5051323;28;20684;-62
2023/09/27 12:43:34;;;;;;;3.05;1.38;;;;;;;;;;5051424;28;20193;-62
2023/09/27 12:46:01;;;;;;;0.90;0.90;;;;;;;;;;5051014;28;20224;-62
2023/09/27 12:48:28;;;;;;;2.75;1.13;;;;;;;;;;5029577;28;20767;-62
2023/09/27 12:50:54;;;;;;;1.73;1.58;;;;;;;;;;5027327;28;20209;-62
2023/09/27 12:53:21;;;;;;;1.50;1.40;;;;;;;;;;5028039;28;20216;-62
2023/09/27 12:55:47;;;;;;;1.15;1.08;;;;;;;;;;5027735;28;20244;-63
2023/09/27 12:58:15;;;;;;;1.38;1.10;;;;;;;;;;5027561;28;20213;-62
2023/09/27 13:00:41;;;;;;;1.25;1.13;;;;;;;;;;5027812;28;20570;-63
2023/09/27 13:03:08;;;;;;;1.20;1.20;;;;;;;;;;5027798;28;20216;-63
2023/09/27 13:05:35;;;;;;;3.20;1.30;;;;;;;;;;5028045;28;20231;-62
2023/09/27 13:08:01;;;;;;;3.22;1.35;;;;;;;;;;5028123;28;20213;-61
2023/09/27 13:10:27;;;;;;;2.28;1.10;;;;;;;;;;5027918;28;20213;-61
2023/09/27 13:12:53;;;;;;;3.28;1.42;;;;;;;;;;5028127;28;20592;-63
2023/09/27 13:15:21;;;;;;;1.40;1.30;;;;;;;;;;5027378;28;20231;-63
2023/09/27 13:17:47;;;;;;;2.75;1.25;;;;;;;;;;5027914;28;20228;-61
2023/09/27 13:20:15;;;;;;;1.67;1.40;;;;;;;;;;5027775;28;20223;-62
2023/09/27 13:22:41;;;;;;;1.80;1.30;;;;;;;;;;5028008;28;20216;-62
2023/09/27 13:25:10;;;;;;;1.00;1.00;;;;;;;;;;5027482;28;20626;-62
2023/09/27 13:27:36;;;;;;;1.25;1.00;;;;;;;;;;5026879;28;20557;-65
2023/09/27 13:30:03;;;;;;;1.35;1.33;;;;;;;;;;5027584;28;20221;-63
2023/09/27 13:32:30;;;;;;;1.20;1.20;;;;;;;;;;5027722;28;20209;-63
2023/09/27 13:34:57;;;;;;;1.85;1.25;;;;;;;;;;5027985;28;20216;-63
2023/09/27 13:37:23;;;;;;;5.32;1.23;;;;;;;;;;5030847;28;20224;-63
2023/09/27 13:39:49;;;;;;;1.30;1.30;;;;;;;;;;5044897;28;20207;-62
2023/09/27 13:42:15;;;;;;;1.60;1.40;;;;;;;;;;5050023;28;20741;-75
2023/09/27 13:44:42;;;;;;;1.10;1.10;;;;;;;;;;5050647;28;20219;-75
2023/09/27 13:47:09;;;;;;;1.27;1.20;;;;;;;;;;5050884;28;20197;-75
2023/09/27 13:49:36;;;;;;;1.27;1.20;;;;;;;;;;5050610;28;20193;-74
2023/09/27 13:52:04;;;;;;;1.02;1.02;;;;;;;;;;5051029;28;20207;-74
2023/09/27 13:54:31;;;;;;;1.30;1.25;;;;;;;;;;5051125;28;20201;-74
2023/09/27 13:56:58;;;;;;;1.65;1.08;;;;;;;;;;5050883;28;20274;-74
2023/09/27 13:59:25;;;;;;;1.75;1.10;;;;;;;;;;5050625;28;20951;-74
2023/09/27 14:01:51;;;;;;;1.23;1.00;;;;;;;;;;5053130;28;20208;-74
2023/09/27 14:04:17;;;;;;;1.30;1.20;;;;;;;;;;5054653;28;20197;-74
2023/09/27 14:06:45;;;;;;;1.50;1.40;;;;;;;;;;5054550;28;20728;-74
2023/09/27 14:09:11;;;;;;;1.73;1.20;;;;;;;;;;5055108;28;20207;-74
2023/09/27 14:11:40;;;;;;;1.90;1.10;;;;;;;;;;5056806;28;20207;-74
2023/09/27 14:14:06;;;;;;;1.10;1.00;;;;;;;;;;5054674;28;20287;-74
2023/09/27 14:16:32;;;;;;;1.20;1.10;;;;;;;;;;5054283;28;20224;-74
2023/09/27 14:18:59;;;;;;;1.33;1.10;;;;;;;;;;5053996;28;20669;-74
2023/09/27 14:21:25;;;;;;;1.30;1.20;;;;;;;;;;5054172;28;20212;-74
2023/09/27 14:23:53;;;;;;;0.93;0.82;;;;;;;;;;5054225;28;20577;-74
2023/09/27 14:26:19;;;;;;;1.05;1.05;;;;;;;;;;5053704;28;20216;-74
2023/09/27 14:28:46;;;;;;;1.30;1.13;;;;;;;;;;5054026;28;20231;-74
2023/09/27 14:31:12;;;;;;;1.20;0.90;;;;;;;;;;5054072;28;20201;-74
2023/09/27 14:33:38;;;;;;;1.48;1.38;;;;;;;;;;5053992;28;20484;-74
2023/09/27 14:36:05;;;;;;;1.30;1.30;;;;;;;;;;5053771;28;20220;-74
2023/09/27 14:38:33;;;;;;;1.27;1.17;;;;;;;;;;5053783;28;20208;-74
2023/09/27 14:41:06;;;;;;;1.33;1.30;;;;;;;;;;5053926;28;20232;-74